Time;durP1;ratioP1;P1;durP2;ratioP2;P2;SDS_P1;SDS_P2;PMS_P1;PMS_P2;Temp;Humidity;BMP_temperature;BMP_pressure;BME280_temperature;BME280_humidity;BME280_pressure;Samples;Min_cycle;Max_cycle;Signal;HPM_P1;HPM_P2
2023/01/04 00:02:08;0.00;0.00;0.62;0.00;0.00;0.62;2.17;1.10;;;25.50;26.70;;;;;;2258860;61;20450;-56
2023/01/04 00:04:35;0.00;0.00;0.62;0.00;0.00;0.62;1.40;0.90;;;25.50;26.80;;;;;;2259045;61;20396;-58
2023/01/04 00:07:01;0.00;0.00;0.62;0.00;0.00;0.62;1.63;1.00;;;25.50;26.70;;;;;;2259629;61;20354;-58
2023/01/04 00:09:28;0.00;0.00;0.62;0.00;0.00;0.62;2.17;0.73;;;25.50;26.70;;;;;;2259098;61;20428;-58
2023/01/04 00:11:55;0.00;0.00;0.62;0.00;0.00;0.62;1.70;0.80;;;25.40;26.60;;;;;;2257468;61;20367;-58
2023/01/04 00:14:22;0.00;0.00;0.62;0.00;0.00;0.62;1.60;0.80;;;25.50;26.70;;;;;;2253420;61;20410;-60
2023/01/04 00:16:48;0.00;0.00;0.62;0.00;0.00;0.62;2.13;1.10;;;25.50;26.80;;;;;;2255241;61;20390;-61
2023/01/04 00:19:15;0.00;0.00;0.62;0.00;0.00;0.62;1.50;0.80;;;25.50;26.80;;;;;;2253446;61;20388;-65
2023/01/04 00:21:42;0.00;0.00;0.62;0.00;0.00;0.62;1.37;0.83;;;25.50;26.90;;;;;;2254446;61;20536;-64
2023/01/04 00:24:09;0.00;0.00;0.62;0.00;0.00;0.62;1.47;0.90;;;25.50;26.90;;;;;;2255412;61;20355;-64
2023/01/04 00:26:36;0.00;0.00;0.62;0.00;0.00;0.62;1.50;0.83;;;25.40;27.30;;;;;;2255419;61;20409;-65
2023/01/04 00:29:06;0.00;0.00;0.62;0.00;0.00;0.62;1.70;0.80;;;25.40;26.80;;;;;;2254311;61;20360;-61
2023/01/04 00:31:34;0.00;0.00;0.62;0.00;0.00;0.62;1.77;0.80;;;25.50;26.90;;;;;;2255327;61;20898;-57
2023/01/04 00:34:04;0.00;0.00;0.62;0.00;0.00;0.62;1.60;0.83;;;25.50;26.90;;;;;;2254973;61;20382;-60
2023/01/04 00:36:32;0.00;0.00;0.62;0.00;0.00;0.62;1.60;1.00;;;25.50;26.80;;;;;;2254691;61;20379;-60
2023/01/04 00:39:06;0.00;0.00;0.62;0.00;0.00;0.62;1.50;0.90;;;25.50;26.80;;;;;;2255526;61;20399;-60
2023/01/04 00:41:36;0.00;0.00;0.62;0.00;0.00;0.62;1.83;0.90;;;25.50;26.70;;;;;;2255463;61;20355;-60
2023/01/04 00:44:05;0.00;0.00;0.62;0.00;0.00;0.62;1.40;0.90;;;25.50;26.70;;;;;;2254861;61;20449;-57
2023/01/04 00:46:32;0.00;0.00;0.62;0.00;0.00;0.62;1.93;1.23;;;25.50;26.60;;;;;;2254400;61;20378;-62
2023/01/04 00:48:59;0.00;0.00;0.62;0.00;0.00;0.62;1.70;0.90;;;25.50;26.60;;;;;;2254518;61;20359;-62
2023/01/04 00:51:27;0.00;0.00;0.62;0.00;0.00;0.62;2.03;0.93;;;25.50;27.10;;;;;;2255068;61;20359;-62
2023/01/04 00:53:53;0.00;0.00;0.62;0.00;0.00;0.62;2.00;1.00;;;25.50;26.50;;;;;;2255353;61;20422;-60
2023/01/04 00:56:20;0.00;0.00;0.62;0.00;0.00;0.62;1.70;0.90;;;25.50;26.50;;;;;;2255433;61;20389;-60
2023/01/04 00:58:46;0.00;0.00;0.62;0.00;0.00;0.62;1.73;1.27;;;25.50;26.50;;;;;;2254418;61;20774;-62
2023/01/04 01:01:14;0.00;0.00;0.62;0.00;0.00;0.62;1.50;0.70;;;25.50;26.60;;;;;;2255539;61;20355;-62
2023/01/04 01:03:43;0.00;0.00;0.62;0.00;0.00;0.62;1.70;0.93;;;25.40;27.00;;;;;;2254684;61;20776;-61
2023/01/04 01:06:09;0.00;0.00;0.62;0.00;0.00;0.62;2.07;0.83;;;25.50;26.50;;;;;;2254797;61;20950;-62
2023/01/04 01:08:36;0.00;0.00;0.62;0.00;0.00;0.62;1.50;1.00;;;25.40;26.50;;;;;;2255398;61;20366;-60
2023/01/04 01:11:05;0.00;0.00;0.62;0.00;0.00;0.62;1.60;0.80;;;25.40;26.50;;;;;;2255494;61;20812;-61
2023/01/04 01:13:33;0.00;0.00;0.62;0.00;0.00;0.62;1.57;0.77;;;25.50;26.50;;;;;;2254142;61;20494;-62
2023/01/04 01:16:03;0.00;0.00;0.62;0.00;0.00;0.62;2.10;0.80;;;25.50;26.50;;;;;;2255372;61;20379;-61
2023/01/04 01:18:31;0.00;0.00;0.62;0.00;0.00;0.62;1.50;1.03;;;25.50;26.60;;;;;;2255481;61;20359;-62
2023/01/04 01:20:58;0.00;0.00;0.62;0.00;0.00;0.62;1.40;0.90;;;25.40;26.50;;;;;;2254509;61;20378;-61
2023/01/04 01:23:24;0.00;0.00;0.62;0.00;0.00;0.62;1.40;0.80;;;25.40;26.50;;;;;;2255163;61;20357;-62
2023/01/04 01:25:51;0.00;0.00;0.62;0.00;0.00;0.62;1.40;0.80;;;25.40;26.50;;;;;;2255447;61;20375;-62
2023/01/04 01:28:17;0.00;0.00;0.62;0.00;0.00;0.62;1.40;0.80;;;25.40;26.50;;;;;;2254852;61;20421;-62
2023/01/04 01:30:43;0.00;0.00;0.62;0.00;0.00;0.62;1.80;0.80;;;25.40;26.50;;;;;;2255183;61;20772;-62
2023/01/04 01:33:10;0.00;0.00;0.62;0.00;0.00;0.62;1.40;0.80;;;25.40;26.50;;;;;;2255288;61;20433;-62
2023/01/04 01:35:38;0.00;0.00;0.62;0.00;0.00;0.62;1.50;0.80;;;25.40;26.50;;;;;;2254577;61;20375;-62
2023/01/04 01:38:04;0.00;0.00;0.62;0.00;0.00;0.62;1.67;0.90;;;25.40;26.50;;;;;;2254669;61;20359;-62
2023/01/04 01:40:31;0.00;0.00;0.62;0.00;0.00;0.62;1.63;0.90;;;25.40;26.40;;;;;;2254854;61;20416;-61
2023/01/04 01:42:57;0.00;0.00;0.62;0.00;0.00;0.62;1.40;0.90;;;25.40;26.40;;;;;;2254437;61;20361;-61
2023/01/04 01:45:30;0.00;0.00;0.62;0.00;0.00;0.62;1.50;0.80;;;25.40;26.40;;;;;;2255184;61;20400;-63
2023/01/04 01:48:03;0.00;0.00;0.62;0.00;0.00;0.62;2.37;1.10;;;25.40;26.30;;;;;;2255450;61;20355;-63
2023/01/04 01:50:35;0.00;0.00;0.62;0.00;0.00;0.62;1.40;0.80;;;25.30;26.00;;;;;;2254565;61;20816;-64
2023/01/04 01:53:06;0.00;0.00;0.62;0.00;0.00;0.62;4.37;1.10;;;25.30;25.90;;;;;;2255080;61;20351;-63
2023/01/04 01:55:35;0.00;0.00;0.62;0.00;0.00;0.62;2.50;1.47;;;25.20;25.70;;;;;;2254680;61;20422;-63
2023/01/04 01:58:06;0.00;0.00;0.62;0.00;0.00;0.62;1.63;1.37;;;25.20;25.50;;;;;;2254947;61;20362;-64
2023/01/04 02:00:33;0.00;0.00;0.62;0.00;0.00;0.62;1.60;1.00;;;25.10;25.30;;;;;;2255279;61;20394;-63
2023/01/04 02:03:12;0.00;0.00;0.62;0.00;0.00;0.62;1.90;1.10;;;25.10;25.20;;;;;;2255019;61;20382;-63
2023/01/04 02:05:39;0.00;0.00;0.62;0.00;0.00;0.62;2.33;1.30;;;25.00;25.20;;;;;;2254653;61;20400;-61
2023/01/04 02:08:09;0.00;0.00;0.62;0.00;0.00;0.62;3.70;1.40;;;25.00;25.10;;;;;;2255221;61;20388;-63
2023/01/04 02:10:35;0.00;0.00;0.62;0.00;0.00;0.62;1.73;1.17;;;24.90;25.00;;;;;;2254574;61;20448;-62
2023/01/04 02:13:07;0.00;0.00;0.62;0.00;0.00;0.62;1.63;1.10;;;24.80;24.80;;;;;;2254690;61;20390;-61
2023/01/04 02:15:45;0.00;0.00;0.62;0.00;0.00;0.62;2.60;1.70;;;24.80;24.90;;;;;;2255578;61;20871;-62
2023/01/04 02:18:16;0.00;0.00;0.62;0.00;0.00;0.62;2.00;1.37;;;24.70;24.80;;;;;;2254739;61;20872;-63
2023/01/04 02:20:49;0.00;0.00;0.62;0.00;0.00;0.62;1.80;1.10;;;24.70;24.80;;;;;;2254621;61;20358;-63
2023/01/04 02:24:16;0.00;0.00;0.62;0.00;0.00;0.62;2.77;1.60;;;24.60;24.60;;;;;;2255229;61;20798;-64
2023/01/04 02:27:16;0.00;0.00;0.62;0.00;0.00;0.62;2.63;1.40;;;24.50;24.50;;;;;;2254496;61;20436;-62
2023/01/04 02:30:34;0.00;0.00;0.62;0.00;0.00;0.62;2.20;1.37;;;24.50;24.40;;;;;;2254831;61;20396;-63
2023/01/04 02:33:24;0.00;0.00;0.62;0.00;0.00;0.62;2.80;1.53;;;24.40;24.30;;;;;;2255610;61;20355;-63
2023/01/04 02:36:00;0.00;0.00;0.62;0.00;0.00;0.62;2.47;1.60;;;24.30;24.20;;;;;;2255553;61;20414;-63
2023/01/04 02:38:36;0.00;0.00;0.62;0.00;0.00;0.62;1.97;1.40;;;24.20;24.10;;;;;;2256253;61;20978;-63
2023/01/04 02:41:14;0.00;0.00;0.62;0.00;0.00;0.62;2.03;1.30;;;24.20;24.10;;;;;;2255850;61;20354;-64
2023/01/04 02:46:42;0.00;0.00;0.62;0.00;0.00;0.62;4.40;1.73;;;24.00;23.90;;;;;;2255736;61;20362;-62
2023/01/04 02:51:55;0.00;0.00;0.62;0.00;0.00;0.62;2.40;1.50;;;23.90;23.90;;;;;;2255676;61;20374;-63
2023/01/04 02:54:28;0.00;0.00;0.62;0.00;0.00;0.62;1.63;1.20;;;23.90;23.90;;;;;;2255683;61;20373;-62
2023/01/04 02:57:20;0.00;0.00;0.62;0.00;0.00;0.62;2.20;1.20;;;23.80;23.90;;;;;;2255323;61;20383;-63
2023/01/04 03:00:11;0.00;0.00;0.62;0.00;0.00;0.62;3.17;1.40;;;23.80;24.00;;;;;;2255672;61;20452;-63
2023/01/04 03:08:45;0.00;0.00;0.62;0.00;0.00;0.62;2.77;1.27;;;23.50;23.80;;;;;;2255787;61;20370;-63
2023/01/04 03:14:07;0.00;0.00;0.62;0.00;0.00;0.62;2.80;1.20;;;23.50;23.90;;;;;;2255541;61;20452;-63
2023/01/04 03:16:35;0.00;0.00;0.62;0.00;0.00;0.62;2.53;1.23;;;23.40;23.60;;;;;;2255866;61;20805;-63
2023/01/04 03:19:08;0.00;0.00;0.62;0.00;0.00;0.62;3.70;1.50;;;23.40;23.50;;;;;;2255217;61;20409;-63
2023/01/04 03:21:40;0.00;0.00;0.62;0.00;0.00;0.62;2.40;1.60;;;23.30;23.50;;;;;;2255673;61;20361;-64
2023/01/04 03:35:40;0.00;0.00;0.62;0.00;0.00;0.62;3.07;1.40;;;22.90;23.10;;;;;;2255102;61;20375;-62
2023/01/04 03:49:41;0.00;0.00;0.62;0.00;0.00;0.62;2.97;1.40;;;22.50;23.50;;;;;;2255135;61;20354;-63
2023/01/04 03:52:09;0.00;0.00;0.62;0.00;0.00;0.62;2.63;1.40;;;22.50;23.70;;;;;;2255274;61;20892;-61
2023/01/04 03:54:40;0.00;0.00;0.62;0.00;0.00;0.62;2.37;1.23;;;22.40;23.70;;;;;;2255237;61;20375;-62
2023/01/04 03:57:08;0.00;0.00;0.62;0.00;0.00;0.62;3.00;1.63;;;22.40;24.30;;;;;;2254986;61;20379;-63
2023/01/04 03:59:40;0.00;0.00;0.62;0.00;0.00;0.62;7.03;1.40;;;22.30;23.80;;;;;;2255795;61;20359;-63
2023/01/04 04:02:12;0.00;0.00;0.62;0.00;0.00;0.62;2.03;1.33;;;22.30;23.90;;;;;;2255576;61;20359;-61
2023/01/04 04:10:10;0.00;0.00;0.62;0.00;0.00;0.62;2.97;1.57;;;22.20;24.00;;;;;;2255459;61;20351;-63
2023/01/04 04:12:36;0.00;0.00;0.62;0.00;0.00;0.62;1.90;1.30;;;22.20;24.10;;;;;;2254902;61;20405;-63
2023/01/04 04:15:04;0.00;0.00;0.62;0.00;0.00;0.62;2.20;1.50;;;22.10;24.10;;;;;;2255740;61;20902;-63
2023/01/04 04:17:30;0.00;0.00;0.62;0.00;0.00;0.62;2.43;1.60;;;22.10;24.20;;;;;;2255356;61;20383;-63
2023/01/04 04:19:57;0.00;0.00;0.62;0.00;0.00;0.62;1.73;1.17;;;22.10;24.30;;;;;;2254890;61;20358;-63
2023/01/04 04:22:23;0.00;0.00;0.62;0.00;0.00;0.62;3.37;1.70;;;22.00;24.30;;;;;;2255163;61;20355;-63
2023/01/04 04:24:49;0.00;0.00;0.62;0.00;0.00;0.62;2.43;1.40;;;22.00;24.40;;;;;;2255284;61;20386;-63
2023/01/04 04:27:17;0.00;0.00;0.62;0.00;0.00;0.62;3.37;2.10;;;22.00;24.50;;;;;;2254908;61;20359;-63
2023/01/04 04:29:44;0.00;0.00;0.62;0.00;0.00;0.62;2.20;1.40;;;21.90;24.40;;;;;;2255615;61;20367;-63
2023/01/04 04:32:10;0.00;0.00;0.62;0.00;0.00;0.62;5.07;1.80;;;21.90;24.50;;;;;;2255450;61;20425;-64
2023/01/04 04:34:36;0.00;0.00;0.62;0.00;0.00;0.62;4.13;1.90;;;21.90;24.50;;;;;;2254737;61;20371;-62
2023/01/04 04:37:03;0.00;0.00;0.62;0.00;0.00;0.62;2.40;1.43;;;21.90;25.10;;;;;;2255680;61;20383;-63
2023/01/04 04:39:29;0.00;0.00;0.62;0.00;0.00;0.62;2.90;1.50;;;21.90;24.70;;;;;;2255311;61;20370;-62
2023/01/04 04:41:55;0.00;0.00;0.62;0.00;0.00;0.62;3.00;1.93;;;21.80;24.70;;;;;;2254437;61;20382;-63
2023/01/04 04:44:24;0.00;0.00;0.62;0.00;0.00;0.62;3.00;1.90;;;21.80;24.80;;;;;;2254796;61;20412;-63
2023/01/04 04:46:50;0.00;0.00;0.62;0.00;0.00;0.62;3.40;1.77;;;21.80;24.80;;;;;;2255164;61;20370;-63
2023/01/04 04:49:17;0.00;0.00;0.62;0.00;0.00;0.62;3.90;2.20;;;21.70;24.80;;;;;;2255155;61;20455;-63
2023/01/04 04:51:45;0.00;0.00;0.62;0.00;0.00;0.62;4.83;1.90;;;21.70;24.90;;;;;;2255702;61;20351;-63
2023/01/04 04:54:17;0.00;0.00;0.62;0.00;0.00;0.62;2.30;1.60;;;21.70;24.90;;;;;;2254494;61;20365;-63
2023/01/04 04:56:44;0.00;0.00;0.62;0.00;0.00;0.62;2.83;1.63;;;21.70;25.00;;;;;;2254369;61;20383;-63
2023/01/04 04:59:10;0.00;0.00;0.62;0.00;0.00;0.62;2.20;1.50;;;21.60;25.00;;;;;;2255629;61;20418;-64
2023/01/04 05:01:38;0.00;0.00;0.62;0.00;0.00;0.62;2.50;1.60;;;21.60;25.10;;;;;;2255326;61;20355;-63
2023/01/04 05:04:05;0.00;0.00;0.62;0.00;0.00;0.62;2.57;1.30;;;21.60;25.10;;;;;;2254831;61;20875;-63
2023/01/04 05:06:31;0.00;0.00;0.62;0.00;0.00;0.62;2.97;1.80;;;21.50;25.10;;;;;;2255554;61;20359;-63
2023/01/04 05:08:58;0.00;0.00;0.62;0.00;0.00;0.62;3.30;1.90;;;21.50;25.20;;;;;;2251356;61;20359;-63
2023/01/04 05:14:09;0.00;0.00;0.62;0.00;0.00;0.62;3.40;1.90;;;21.50;25.30;;;;;;2255369;61;20371;-62
2023/01/04 05:16:36;0.00;0.00;0.62;0.00;0.00;0.62;2.17;1.67;;;21.40;25.30;;;;;;2255253;61;20391;-64
2023/01/04 05:19:03;0.00;0.00;0.62;0.00;0.00;0.62;4.80;1.80;;;21.40;25.40;;;;;;2254861;61;20355;-63
2023/01/04 05:21:30;0.00;0.00;0.62;0.00;0.00;0.62;5.30;1.87;;;21.40;25.50;;;;;;2255725;61;20369;-63
2023/01/04 05:23:56;0.00;0.00;0.62;0.00;0.00;0.62;2.60;1.50;;;21.40;25.50;;;;;;2254836;61;20362;-62
2023/01/04 05:26:22;0.00;0.00;0.62;0.00;0.00;0.62;2.37;1.87;;;21.40;25.60;;;;;;2254846;61;20374;-63
2023/01/04 05:28:49;0.00;0.00;0.62;0.00;0.00;0.62;1.97;1.50;;;21.30;25.60;;;;;;2255493;61;20361;-63
2023/01/04 05:31:15;0.00;0.00;0.62;0.00;0.00;0.62;2.73;1.60;;;21.30;25.70;;;;;;2255191;61;20363;-63
2023/01/04 05:33:42;0.00;0.00;0.62;0.00;0.00;0.62;2.60;1.50;;;21.30;25.70;;;;;;2254725;61;20354;-63
2023/01/04 05:36:10;0.00;0.00;0.62;0.00;0.00;0.62;2.70;1.70;;;21.30;25.80;;;;;;2255418;61;20881;-63
2023/01/04 05:38:36;0.00;0.00;0.62;0.00;0.00;0.62;1.93;1.40;;;21.30;25.90;;;;;;2255085;61;20370;-63
2023/01/04 05:41:02;0.00;0.00;0.62;0.00;0.00;0.62;2.97;1.57;;;21.20;25.90;;;;;;2254763;61;20363;-63
2023/01/04 05:43:29;0.00;0.00;0.62;0.00;0.00;0.62;3.77;1.93;;;21.20;25.90;;;;;;2255288;61;20354;-63
2023/01/04 05:45:56;0.00;0.00;0.62;0.00;0.00;0.62;3.10;1.97;;;21.20;26.30;;;;;;2255135;61;20394;-63
2023/01/04 05:48:24;0.00;0.00;0.62;0.00;0.00;0.62;2.93;1.70;;;21.20;26.10;;;;;;2254996;61;20418;-63
2023/01/04 05:50:52;0.00;0.00;0.62;0.00;0.00;0.62;1.83;1.30;;;21.20;26.10;;;;;;2255417;61;20362;-62
2023/01/04 05:53:19;0.00;0.00;0.62;0.00;0.00;0.62;2.93;1.30;;;21.20;26.10;;;;;;2254945;61;20357;-61
2023/01/04 05:55:48;0.00;0.00;0.62;0.00;0.00;0.62;2.57;1.70;;;21.20;26.20;;;;;;2254813;61;20529;-62
2023/01/04 05:58:14;0.00;0.00;0.62;0.00;0.00;0.62;1.77;1.27;;;21.20;26.20;;;;;;2255331;61;20386;-63
2023/01/04 06:00:41;0.00;0.00;0.62;0.00;0.00;0.62;4.90;1.57;;;21.20;26.30;;;;;;2255136;61;20363;-64
2023/01/04 06:03:07;0.00;0.00;0.62;0.00;0.00;0.62;3.43;1.70;;;21.10;26.30;;;;;;2254679;61;20453;-63
2023/01/04 06:05:34;0.00;0.00;0.62;0.00;0.00;0.62;2.70;1.43;;;21.10;26.30;;;;;;2255075;61;20382;-61
2023/01/04 06:08:00;0.00;0.00;0.62;0.00;0.00;0.62;3.17;1.77;;;21.10;26.30;;;;;;2255830;61;20355;-64
2023/01/04 06:10:28;0.00;0.00;0.62;0.00;0.00;0.62;2.63;1.30;;;21.10;26.40;;;;;;2255519;61;20906;-63
2023/01/04 06:12:54;0.00;0.00;0.62;0.00;0.00;0.62;2.83;1.80;;;21.10;26.40;;;;;;2256091;61;20409;-62
2023/01/04 06:15:20;0.00;0.00;0.62;0.00;0.00;0.62;2.67;1.63;;;21.10;26.40;;;;;;2255858;61;20906;-62
2023/01/04 06:17:47;0.00;0.00;0.62;0.00;0.00;0.62;1.67;1.27;;;21.10;26.50;;;;;;2255436;61;20413;-65
2023/01/04 06:20:13;0.00;0.00;0.62;0.00;0.00;0.62;2.40;1.63;;;21.00;26.40;;;;;;2255256;61;20441;-65
2023/01/04 06:22:40;0.00;0.00;0.62;0.00;0.00;0.62;4.53;1.90;;;21.00;26.50;;;;;;2255736;61;20363;-64
2023/01/04 06:25:08;0.00;0.00;0.62;0.00;0.00;0.62;4.30;1.80;;;21.00;26.50;;;;;;2255332;61;20410;-63
2023/01/04 06:27:36;0.00;0.00;0.62;0.00;0.00;0.62;3.90;2.00;;;21.00;26.60;;;;;;2255956;61;20381;-66
2023/01/04 06:30:03;0.00;0.00;0.62;0.00;0.00;0.62;2.50;1.60;;;21.00;26.60;;;;;;2256007;61;20504;-64
2023/01/04 06:32:29;0.00;0.00;0.62;0.00;0.00;0.62;2.70;1.67;;;20.90;26.50;;;;;;2255757;61;20415;-63
2023/01/04 06:34:56;0.00;0.00;0.62;0.00;0.00;0.62;3.43;1.60;;;20.90;26.60;;;;;;2255247;61;20929;-63
2023/01/04 06:37:22;0.00;0.00;0.62;0.00;0.00;0.62;2.73;1.47;;;20.80;26.60;;;;;;2256007;61;20401;-63
2023/01/04 06:39:49;0.00;0.00;0.62;0.00;0.00;0.62;2.30;1.20;;;20.80;26.70;;;;;;2255667;61;20362;-63
2023/01/04 06:45:02;0.00;0.00;0.62;0.00;0.00;0.62;2.97;1.50;;;20.70;26.80;;;;;;2255867;61;20440;-62
2023/01/04 06:47:29;0.00;0.00;0.62;0.00;0.00;0.62;2.77;1.50;;;20.60;26.80;;;;;;2255090;61;20905;-66
2023/01/04 06:49:55;0.00;0.00;0.62;0.00;0.00;0.62;2.60;1.10;;;20.60;27.00;;;;;;2256067;61;20369;-64
2023/01/04 06:52:22;0.00;0.00;0.62;0.00;0.00;0.62;3.50;1.57;;;20.50;26.90;;;;;;2255631;61;20362;-64
2023/01/04 06:54:48;0.00;0.00;0.62;0.00;0.00;0.62;2.77;1.67;;;20.50;26.90;;;;;;2255321;61;20386;-59
2023/01/04 06:57:14;0.00;0.00;0.62;0.00;0.00;0.62;2.33;1.43;;;20.40;27.20;;;;;;2256045;61;20457;-64
2023/01/04 06:59:41;0.00;0.00;0.62;0.00;0.00;0.62;2.63;1.50;;;20.40;27.40;;;;;;2255635;61;20366;-62
2023/01/04 07:02:12;0.00;0.00;0.62;0.00;0.00;0.62;2.40;1.50;;;20.40;27.40;;;;;;2255233;61;20363;-62
2023/01/04 07:04:39;0.00;0.00;0.62;0.00;0.00;0.62;2.10;1.37;;;20.30;27.40;;;;;;2255756;61;20386;-59
2023/01/04 07:07:08;0.00;0.00;0.62;0.00;0.00;0.62;1.70;1.20;;;20.30;27.40;;;;;;2255784;61;20428;-61
2023/01/04 07:09:35;0.00;0.00;0.62;0.00;0.00;0.62;2.50;1.27;;;20.30;27.50;;;;;;2254779;61;20389;-62
2023/01/04 07:12:01;0.00;0.00;0.62;0.00;0.00;0.62;1.60;1.00;;;20.30;27.50;;;;;;2255951;61;20359;-60
2023/01/04 07:14:27;0.00;0.00;0.62;0.00;0.00;0.62;2.97;1.10;;;20.30;27.50;;;;;;2255170;61;20964;-65
2023/01/04 07:16:54;0.00;0.00;0.62;0.00;0.00;0.62;1.90;1.20;;;20.40;27.60;;;;;;2254955;61;20397;-63
2023/01/04 07:19:21;0.00;0.00;0.62;0.00;0.00;0.62;1.70;1.00;;;20.40;27.60;;;;;;2255677;61;20351;-63
2023/01/04 07:21:48;0.00;0.00;0.62;0.00;0.00;0.62;1.70;0.93;;;20.40;27.60;;;;;;2255514;61;20362;-61
2023/01/04 07:24:14;0.00;0.00;0.62;0.00;0.00;0.62;3.50;1.00;;;20.50;27.60;;;;;;2254994;61;20412;-62
2023/01/04 07:26:40;0.00;0.00;0.62;0.00;0.00;0.62;1.80;1.00;;;20.50;27.60;;;;;;2255793;61;20406;-63
2023/01/04 07:29:15;0.00;0.00;0.62;0.00;0.00;0.62;1.80;1.00;;;20.60;27.60;;;;;;2255547;61;20863;-63
2023/01/04 07:31:44;0.00;0.00;0.62;0.00;0.00;0.62;1.70;0.97;;;20.70;27.60;;;;;;2255308;61;20397;-63
2023/01/04 07:34:10;0.00;0.00;0.62;0.00;0.00;0.62;1.50;0.90;;;20.70;27.50;;;;;;2255739;61;20355;-62
2023/01/04 07:36:39;0.00;0.00;0.62;0.00;0.00;0.62;1.50;0.80;;;20.80;28.00;;;;;;2255140;61;20387;-65
2023/01/04 07:39:05;0.00;0.00;0.62;0.00;0.00;0.62;1.40;0.90;;;20.80;27.40;;;;;;2255176;61;20367;-63
2023/01/04 07:41:32;0.00;0.00;0.62;0.00;0.00;0.62;2.10;1.20;;;20.80;27.20;;;;;;2255294;61;20409;-63
2023/01/04 07:44:00;0.00;0.00;0.62;0.00;0.00;0.62;1.50;0.93;;;20.90;27.20;;;;;;2255477;61;20393;-63
2023/01/04 07:46:26;0.00;0.00;0.62;0.00;0.00;0.62;1.50;0.87;;;21.00;27.30;;;;;;2255088;61;20918;-63
2023/01/04 07:48:53;0.00;0.00;0.62;0.00;0.00;0.62;1.60;1.00;;;21.00;27.30;;;;;;2255907;61;20355;-63
2023/01/04 07:51:19;0.00;0.00;0.62;0.00;0.00;0.62;1.40;0.80;;;21.00;27.30;;;;;;2255666;61;20408;-61
2023/01/04 07:53:47;0.00;0.00;0.62;0.00;0.00;0.62;1.30;0.80;;;21.10;27.40;;;;;;2255057;61;20416;-65
2023/01/04 07:56:13;0.00;0.00;0.62;0.00;0.00;0.62;1.90;0.83;;;21.10;27.40;;;;;;2255814;61;20803;-63
2023/01/04 07:58:40;0.00;0.00;0.62;0.00;0.00;0.62;1.67;0.97;;;21.20;27.40;;;;;;2255482;61;20359;-62
2023/01/04 08:01:08;0.00;0.00;0.62;0.00;0.00;0.62;1.30;0.77;;;21.20;27.30;;;;;;2255155;61;20875;-64
2023/01/04 08:03:37;0.00;0.00;0.62;0.00;0.00;0.62;1.40;0.80;;;21.30;27.30;;;;;;2255628;61;20359;-64
2023/01/04 08:06:05;0.00;0.00;0.62;0.00;0.00;0.62;1.90;0.90;;;21.30;27.20;;;;;;2255636;61;20382;-63
2023/01/04 08:08:32;0.00;0.00;0.62;0.00;0.00;0.62;1.57;0.80;;;21.30;27.20;;;;;;2254600;61;20347;-63
2023/01/04 08:11:02;0.00;0.00;0.62;0.00;0.00;0.62;1.30;0.73;;;21.40;27.10;;;;;;2255847;61;20409;-63
2023/01/04 08:13:28;0.00;0.00;0.62;0.00;0.00;0.62;1.70;0.77;;;21.40;27.10;;;;;;2255119;61;20450;-61
2023/01/04 08:15:55;0.00;0.00;0.62;0.00;0.00;0.62;1.50;0.70;;;21.50;27.10;;;;;;2255269;61;20379;-63
2023/01/04 08:18:22;0.00;0.00;0.62;0.00;0.00;0.62;1.40;0.70;;;21.50;27.00;;;;;;2255904;61;20389;-63
2023/01/04 08:20:49;0.00;0.00;0.62;0.00;0.00;0.62;1.30;0.70;;;21.50;27.00;;;;;;2255544;61;20401;-63
2023/01/04 08:23:15;0.00;0.00;0.62;0.00;0.00;0.62;1.30;0.80;;;21.60;27.00;;;;;;2255015;61;20387;-63
2023/01/04 08:25:42;0.00;0.00;0.62;0.00;0.00;0.62;1.30;0.67;;;21.60;27.00;;;;;;2255786;61;20385;-61
2023/01/04 08:28:09;0.00;0.00;0.62;0.00;0.00;0.62;1.30;0.70;;;21.70;27.00;;;;;;2255261;61;20393;-63
2023/01/04 08:30:36;0.00;0.00;0.62;0.00;0.00;0.62;1.33;0.80;;;21.70;26.90;;;;;;2255385;61;20374;-63
2023/01/04 08:33:11;0.00;0.00;0.62;0.00;0.00;0.62;1.37;0.70;;;21.70;26.90;;;;;;2255733;61;20354;-63
2023/01/04 08:35:37;0.00;0.00;0.62;0.00;0.00;0.62;1.70;0.73;;;21.70;26.80;;;;;;2255198;61;20378;-63
2023/01/04 08:38:03;0.00;0.00;0.62;0.00;0.00;0.62;1.57;0.70;;;21.80;26.80;;;;;;2255381;61;20887;-61
2023/01/04 08:40:30;0.00;0.00;0.62;0.00;0.00;0.62;1.30;0.70;;;21.80;26.80;;;;;;2255824;61;20367;-63
2023/01/04 08:42:56;0.00;0.00;0.62;0.00;0.00;0.62;1.30;0.70;;;21.80;26.70;;;;;;2255308;61;20347;-63
2023/01/04 08:45:24;0.00;0.00;0.62;0.00;0.00;0.62;1.30;0.70;;;21.90;26.80;;;;;;2255230;61;20417;-62
2023/01/04 08:47:50;0.00;0.00;0.62;0.00;0.00;0.62;1.30;0.70;;;21.90;26.80;;;;;;2255648;61;20417;-63
2023/01/04 08:50:19;0.00;0.00;0.62;0.00;0.00;0.62;1.30;0.70;;;21.90;26.70;;;;;;2255327;61;20351;-62
2023/01/04 08:52:45;0.00;0.00;0.62;0.00;0.00;0.62;1.30;0.70;;;22.00;26.70;;;;;;2255185;61;20394;-63
2023/01/04 08:55:12;0.00;0.00;0.62;0.00;0.00;0.62;1.40;0.90;;;22.00;26.70;;;;;;2255528;61;20462;-62
2023/01/04 08:57:38;0.00;0.00;0.62;0.00;0.00;0.62;1.40;0.70;;;22.00;26.70;;;;;;2255560;61;20389;-62
2023/01/04 09:00:06;0.00;0.00;0.62;0.00;0.00;0.62;1.40;0.70;;;22.00;27.20;;;;;;2255320;61;20363;-63
2023/01/04 09:02:34;0.00;0.00;0.62;0.00;0.00;0.62;1.50;0.70;;;22.10;26.70;;;;;;2254863;61;20859;-64
2023/01/04 09:05:02;0.00;0.00;0.62;0.00;0.00;0.62;1.23;0.70;;;22.10;26.70;;;;;;2255281;61;20385;-64
2023/01/04 09:07:30;0.00;0.00;0.62;0.00;0.00;0.62;1.40;0.80;;;22.10;26.60;;;;;;2255128;61;20355;-64
2023/01/04 09:09:56;0.00;0.00;0.62;0.00;0.00;0.62;1.23;0.63;;;22.20;26.70;;;;;;2255121;61;20861;-64
2023/01/04 09:12:23;0.00;0.00;0.62;0.00;0.00;0.62;1.40;0.70;;;22.10;26.60;;;;;;2255313;61;20382;-64
2023/01/04 09:14:49;0.00;0.00;0.62;0.00;0.00;0.62;1.30;0.63;;;22.20;26.60;;;;;;2254527;61;20383;-64
2023/01/04 09:17:16;0.00;0.00;0.62;0.00;0.00;0.62;1.30;0.70;;;22.20;26.60;;;;;;2255338;61;20883;-64
2023/01/04 09:20:02;0.00;0.00;0.62;0.00;0.00;0.62;1.60;0.70;;;22.20;26.60;;;;;;2255364;61;20374;-65
2023/01/04 09:22:47;0.00;0.00;0.62;0.00;0.00;0.62;1.30;0.63;;;22.20;26.50;;;;;;2255023;61;20454;-64
2023/01/04 09:25:32;0.00;0.00;0.62;0.00;0.00;0.62;1.40;0.60;;;22.30;26.60;;;;;;2255628;61;20385;-64
2023/01/04 09:28:17;0.00;0.00;0.62;0.00;0.00;0.62;1.30;0.60;;;22.30;26.60;;;;;;2255367;61;20358;-64
2023/01/04 09:31:05;0.00;0.00;0.62;0.00;0.00;0.62;1.30;0.80;;;22.30;26.60;;;;;;2255208;61;20404;-64
2023/01/04 09:33:50;0.00;0.00;0.62;0.00;0.00;0.62;2.37;0.80;;;22.40;26.60;;;;;;2255285;61;20362;-64
2023/01/04 09:36:36;0.00;0.00;0.62;0.00;0.00;0.62;1.40;0.70;;;22.40;27.10;;;;;;2254791;61;20362;-64
2023/01/04 09:39:21;0.00;0.00;0.62;0.00;0.00;0.62;1.53;0.70;;;22.40;26.50;;;;;;2255665;61;20497;-64
2023/01/04 09:42:20;0.00;0.00;0.62;0.00;0.00;0.62;1.20;0.60;;;22.40;26.50;;;;;;2255896;61;20774;-64
2023/01/04 09:45:16;0.00;0.00;0.62;0.00;0.00;0.62;1.20;0.60;;;22.50;26.60;;;;;;2255665;61;20479;-64
2023/01/04 09:47:53;0.00;0.00;0.62;0.00;0.00;0.62;1.30;0.60;;;22.50;26.50;;;;;;2256423;61;20386;-64
2023/01/04 09:50:51;0.00;0.00;0.62;0.00;0.00;0.62;1.47;0.70;;;22.50;26.50;;;;;;2255693;61;20686;-63
2023/01/04 09:53:42;0.00;0.00;0.62;0.00;0.00;0.62;1.30;0.70;;;22.50;26.50;;;;;;2256144;61;20958;-63
2023/01/04 09:56:31;0.00;0.00;0.62;0.00;0.00;0.62;1.40;0.60;;;22.50;26.50;;;;;;2256059;61;20385;-63
2023/01/04 09:59:19;0.00;0.00;0.62;0.00;0.00;0.62;1.20;0.60;;;22.60;27.00;;;;;;2255916;61;20420;-63
2023/01/04 10:02:11;0.00;0.00;0.62;0.00;0.00;0.62;1.20;0.60;;;22.60;26.50;;;;;;2256349;61;20362;-64
2023/01/04 10:05:00;0.00;0.00;0.62;0.00;0.00;0.62;1.40;0.67;;;22.60;26.40;;;;;;2255315;61;20470;-64
2023/01/04 10:07:45;0.00;0.00;0.62;0.00;0.00;0.62;1.30;0.60;;;22.60;26.40;;;;;;2255980;61;20374;-63
2023/01/04 10:10:47;0.00;0.00;0.62;0.00;0.00;0.62;1.20;0.60;;;22.70;26.50;;;;;;2256299;61;20385;-63
2023/01/04 10:13:54;0.00;0.00;0.62;0.00;0.00;0.62;1.30;0.60;;;22.70;26.50;;;;;;2255387;61;20495;-63
2023/01/04 10:17:00;0.00;0.00;0.62;0.00;0.00;0.62;1.30;0.60;;;22.70;26.50;;;;;;2256358;61;20413;-64
2023/01/04 10:20:10;0.00;0.00;0.62;0.00;0.00;0.62;1.30;0.60;;;22.70;26.50;;;;;;2255629;61;20381;-64
2023/01/04 10:23:05;0.00;0.00;0.62;0.00;0.00;0.62;1.30;0.70;;;22.80;26.50;;;;;;2255892;61;20358;-63
2023/01/04 10:25:55;0.00;0.00;0.62;0.00;0.00;0.62;1.30;0.60;;;22.80;26.50;;;;;;2256022;61;20451;-63
2023/01/04 10:29:07;0.00;0.00;0.62;0.00;0.00;0.62;1.57;0.60;;;22.80;26.40;;;;;;2255727;61;20361;-63
2023/01/04 10:32:00;0.00;0.00;0.62;0.00;0.00;0.62;1.40;0.60;;;22.80;26.50;;;;;;2256080;61;20366;-63
2023/01/04 10:34:47;0.00;0.00;0.62;0.00;0.00;0.62;1.20;0.60;;;22.80;26.40;;;;;;2255816;61;20443;-64
2023/01/04 10:37:36;0.00;0.00;0.62;0.00;0.00;0.62;1.20;0.60;;;22.80;26.40;;;;;;2255753;61;20421;-64
2023/01/04 10:40:21;0.00;0.00;0.62;0.00;0.00;0.62;1.30;0.60;;;22.80;26.40;;;;;;2255968;61;20374;-63
2023/01/04 10:43:20;0.00;0.00;0.62;0.00;0.00;0.62;1.20;0.60;;;22.80;26.40;;;;;;2255280;61;20382;-64
2023/01/04 10:46:16;0.00;0.00;0.62;0.00;0.00;0.62;1.20;0.60;;;22.90;26.50;;;;;;2255977;61;20398;-64
2023/01/04 10:49:08;0.00;0.00;0.62;0.00;0.00;0.62;1.20;0.60;;;22.90;26.50;;;;;;2255117;61;20358;-63